Time;durP1;ratioP1;P1;durP2;ratioP2;P2;SDS_P1;SDS_P2;PMS_P1;PMS_P2;Temp;Humidity;BMP_temperature;BMP_pressure;BME280_temperature;BME280_humidity;BME280_pressure;Samples;Min_cycle;Max_cycle;Signal;HPM_P1;HPM_P2
2022/11/06 00:01:40;;;;;;;0.52;0.52;;;21.30;47.70;;;;;;5057297;28;20056;-62
2022/11/06 00:04:07;;;;;;;0.52;0.52;;;21.30;47.70;;;;;;5057181;28;20099;-62
2022/11/06 00:06:46;;;;;;;0.57;0.57;;;21.20;47.70;;;;;;5057425;28;20049;-62
2022/11/06 00:09:17;;;;;;;0.53;0.53;;;21.20;47.70;;;;;;5057149;28;20479;-62
2022/11/06 00:11:44;;;;;;;;;;;21.30;47.80;;;;;;5056677;28;20293;-62
2022/11/06 00:14:12;;;;;;;0.60;0.60;;;21.20;47.70;;;;;;5057089;28;19921;-62
2022/11/06 00:16:40;;;;;;;0.77;0.70;;;21.20;47.70;;;;;;5057380;28;20045;-62
2022/11/06 00:19:08;;;;;;;0.52;0.52;;;21.20;47.80;;;;;;5055735;28;20430;-62
2022/11/06 00:21:35;;;;;;;0.82;0.75;;;21.20;47.70;;;;;;5056190;28;20064;-62
2022/11/06 00:24:05;;;;;;;0.50;0.50;;;21.20;47.80;;;;;;5056675;28;20055;-62
2022/11/06 00:26:33;;;;;;;0.40;0.40;;;21.20;47.80;;;;;;5055441;28;20060;-62
2022/11/06 00:29:01;;;;;;;0.52;0.45;;;21.30;47.80;;;;;;5056756;28;20084;-62
2022/11/06 00:31:31;;;;;;;0.65;0.65;;;21.20;47.80;;;;;;5057217;28;20049;-62
2022/11/06 00:33:59;;;;;;;0.65;0.65;;;21.30;47.80;;;;;;5056713;28;20505;-62
2022/11/06 00:36:31;;;;;;;1.77;0.55;;;21.20;48.00;;;;;;5057304;28;20044;-63
2022/11/06 00:38:59;;;;;;;0.50;0.50;;;21.20;47.90;;;;;;5057686;28;20379;-62
2022/11/06 00:41:26;;;;;;;0.47;0.47;;;21.20;47.90;;;;;;5057026;28;20045;-62
2022/11/06 00:43:57;;;;;;;0.57;0.55;;;21.20;47.90;;;;;;5056982;28;20056;-62
2022/11/06 00:46:24;;;;;;;0.50;0.50;;;21.20;48.00;;;;;;5056929;28;20406;-62
2022/11/06 00:48:52;;;;;;;0.60;0.60;;;21.20;48.00;;;;;;5056670;28;20482;-62
2022/11/06 00:51:32;;;;;;;0.40;0.40;;;21.20;48.00;;;;;;5056784;28;20064;-62
2022/11/06 00:54:01;;;;;;;0.50;0.50;;;21.20;48.00;;;;;;5057048;28;20071;-62
2022/11/06 00:56:29;;;;;;;0.60;0.60;;;21.20;48.00;;;;;;5056742;28;20045;-63
2022/11/06 00:59:04;;;;;;;0.57;0.57;;;21.20;48.00;;;;;;5055605;28;20510;-63
2022/11/06 01:01:37;;;;;;;0.50;0.50;;;21.20;47.90;;;;;;5057333;28;20399;-62
2022/11/06 01:04:10;;;;;;;0.40;0.40;;;21.20;47.90;;;;;;5056620;28;20140;-62
2022/11/06 01:06:41;;;;;;;0.90;0.52;;;21.20;47.90;;;;;;5055705;28;20055;-62
2022/11/06 01:09:11;;;;;;;0.50;0.50;;;21.20;47.90;;;;;;5056359;28;20045;-62
2022/11/06 01:11:47;;;;;;;0.50;0.50;;;21.30;48.00;;;;;;5056851;28;20053;-62
2022/11/06 01:14:34;;;;;;;0.88;0.82;;;21.20;47.90;;;;;;5056379;28;20049;-62
2022/11/06 01:17:01;;;;;;;0.50;0.50;;;21.30;48.00;;;;;;5054986;28;20049;-62
2022/11/06 01:19:28;;;;;;;0.35;0.35;;;21.30;48.00;;;;;;5056539;28;20108;-62
2022/11/06 01:21:55;;;;;;;0.40;0.40;;;21.30;48.00;;;;;;5056172;28;20049;-62
2022/11/06 01:24:25;;;;;;;0.75;0.40;;;21.20;47.90;;;;;;5056703;28;20403;-62
2022/11/06 01:26:52;;;;;;;0.65;0.52;;;21.30;48.00;;;;;;5055232;28;20072;-62
2022/11/06 01:29:39;;;;;;;0.40;0.40;;;21.30;48.00;;;;;;5056647;28;20107;-63
2022/11/06 01:32:06;;;;;;;0.75;0.75;;;21.30;48.00;;;;;;5056247;28;20053;-62
2022/11/06 01:34:33;;;;;;;0.60;0.60;;;21.30;48.00;;;;;;5056456;28;20064;-62
2022/11/06 01:37:01;;;;;;;0.60;0.60;;;21.30;48.00;;;;;;5057008;28;20056;-62
2022/11/06 01:39:28;;;;;;;0.57;0.57;;;21.20;47.90;;;;;;5059900;28;20049;-62
2022/11/06 01:41:55;;;;;;;0.55;0.43;;;21.30;48.00;;;;;;5059796;28;20059;-62
2022/11/06 01:44:48;;;;;;;1.10;0.60;;;21.30;48.00;;;;;;5060068;28;20053;-62
2022/11/06 01:47:24;;;;;;;0.80;0.77;;;21.30;48.00;;;;;;5046020;28;20049;-62
2022/11/06 01:49:56;;;;;;;0.40;0.40;;;21.30;48.00;;;;;;5059499;28;20049;-62
2022/11/06 01:52:25;;;;;;;0.50;0.50;;;21.20;48.00;;;;;;5058653;28;20049;-62
2022/11/06 01:54:58;;;;;;;0.50;0.50;;;21.20;48.00;;;;;;5059875;28;20048;-62
2022/11/06 01:57:25;;;;;;;0.90;0.73;;;21.20;48.00;;;;;;5059898;28;20465;-62
2022/11/06 01:59:54;;;;;;;0.40;0.40;;;21.30;48.10;;;;;;5059969;28;20064;-62
2022/11/06 02:02:22;;;;;;;0.60;0.60;;;21.20;48.00;;;;;;5059461;28;20048;-62
2022/11/06 02:04:49;;;;;;;0.47;0.30;;;21.20;48.00;;;;;;5059930;28;20502;-62
2022/11/06 02:07:17;;;;;;;0.70;0.70;;;21.30;48.10;;;;;;5059154;28;20068;-62
2022/11/06 02:09:45;;;;;;;0.57;0.57;;;21.20;48.00;;;;;;5059690;28;20045;-62
2022/11/06 02:12:50;;;;;;;0.50;0.50;;;21.20;48.00;;;;;;5059464;28;20048;-62
2022/11/06 02:15:44;;;;;;;0.68;0.50;;;21.30;48.10;;;;;;5059487;28;20056;-63
2022/11/06 02:18:36;;;;;;;0.55;0.55;;;21.20;48.10;;;;;;5059218;28;20063;-59
2022/11/06 02:21:43;;;;;;;0.63;0.63;;;21.20;48.70;;;;;;5059161;28;20071;-62
2022/11/06 02:24:49;;;;;;;0.40;0.40;;;21.20;48.20;;;;;;5058498;28;20048;-62
2022/11/06 02:27:23;;;;;;;0.32;0.32;;;21.20;48.20;;;;;;5058935;28;20063;-62
2022/11/06 02:30:01;;;;;;;0.55;0.55;;;21.20;48.20;;;;;;5059140;28;20053;-62
2022/11/06 02:32:50;;;;;;;0.50;0.50;;;21.20;48.20;;;;;;5059130;28;20468;-62
2022/11/06 02:35:52;;;;;;;0.40;0.40;;;21.20;48.80;;;;;;5058858;28;20056;-62
2022/11/06 02:38:25;;;;;;;0.60;0.60;;;21.20;48.30;;;;;;5058843;28;20471;-62
2022/11/06 02:40:56;;;;;;;0.60;0.60;;;21.20;48.20;;;;;;5058842;28;20453;-62
2022/11/06 02:43:34;;;;;;;0.50;0.50;;;21.20;48.20;;;;;;5058551;28;20049;-62
2022/11/06 02:46:13;;;;;;;0.70;0.70;;;21.20;48.20;;;;;;5059456;28;20045;-62
2022/11/06 02:48:46;;;;;;;0.50;0.50;;;21.20;48.20;;;;;;5058178;28;20049;-62
2022/11/06 02:51:17;;;;;;;0.43;0.43;;;21.20;48.20;;;;;;5058854;28;20057;-62
2022/11/06 02:53:46;;;;;;;0.40;0.40;;;21.20;48.20;;;;;;5058640;28;20513;-62
2022/11/06 02:56:23;;;;;;;0.50;0.50;;;21.20;48.20;;;;;;5058813;28;20052;-62
2022/11/06 02:58:56;;;;;;;0.35;0.35;;;21.20;48.20;;;;;;5058721;28;20056;-63
2022/11/06 03:01:33;;;;;;;0.50;0.50;;;21.20;48.20;;;;;;5058453;28;20049;-63
2022/11/06 03:04:06;;;;;;;0.40;0.40;;;21.20;48.20;;;;;;5058483;28;20045;-62
2022/11/06 03:06:49;;;;;;;0.85;0.60;;;21.20;48.20;;;;;;5058258;28;20053;-62
2022/11/06 03:09:24;;;;;;;0.40;0.40;;;21.20;48.20;;;;;;5058520;28;20052;-62
2022/11/06 03:12:00;;;;;;;0.52;0.43;;;21.20;48.20;;;;;;5058800;28;20127;-62
2022/11/06 03:14:58;;;;;;;0.40;0.40;;;21.20;48.20;;;;;;5058179;28;20491;-62
2022/11/06 03:17:53;;;;;;;0.40;0.40;;;21.20;48.20;;;;;;5058378;28;20498;-62
2022/11/06 03:20:35;;;;;;;0.40;0.40;;;21.20;48.20;;;;;;5058117;28;20056;-62
2022/11/06 03:23:13;;;;;;;0.52;0.52;;;21.20;48.30;;;;;;5058313;28;20411;-62
2022/11/06 03:25:46;;;;;;;0.50;0.50;;;21.20;48.20;;;;;;5058219;28;20455;-62
2022/11/06 03:28:36;;;;;;;0.45;0.45;;;21.20;48.30;;;;;;5057676;28;20091;-62
2022/11/06 03:31:10;;;;;;;0.50;0.50;;;21.20;48.30;;;;;;5058157;28;20052;-62
2022/11/06 03:33:44;;;;;;;0.60;0.60;;;21.20;48.30;;;;;;5057852;28;20045;-62
2022/11/06 03:36:21;;;;;;;0.40;0.40;;;21.20;48.30;;;;;;5058187;28;20496;-62
2022/11/06 03:38:55;;;;;;;0.60;0.60;;;21.20;48.30;;;;;;5056775;28;20487;-62
2022/11/06 03:41:28;;;;;;;0.43;0.40;;;21.20;48.30;;;;;;5057792;28;20045;-62
2022/11/06 03:43:59;;;;;;;1.00;0.50;;;21.20;48.30;;;;;;5057594;28;20045;-62
2022/11/06 03:46:29;;;;;;;0.40;0.40;;;21.20;48.30;;;;;;5056113;28;20052;-62
2022/11/06 03:49:01;;;;;;;0.35;0.35;;;21.20;48.30;;;;;;5056642;28;20052;-62
2022/11/06 03:51:46;;;;;;;0.60;0.60;;;21.20;48.30;;;;;;5057795;28;20041;-62
2022/11/06 03:54:26;;;;;;;0.57;0.57;;;21.20;48.40;;;;;;5056329;28;20053;-62
2022/11/06 03:57:00;;;;;;;0.50;0.50;;;21.20;48.40;;;;;;5057592;28;20052;-62
2022/11/06 03:59:34;;;;;;;0.73;0.40;;;21.20;48.40;;;;;;5056768;28;20099;-62
2022/11/06 04:02:02;;;;;;;0.70;0.70;;;21.20;48.40;;;;;;5057129;28;20505;-62
2022/11/06 04:04:36;;;;;;;0.50;0.47;;;21.20;48.50;;;;;;5058015;28;20049;-62
2022/11/06 04:07:08;;;;;;;0.40;0.40;;;21.10;48.40;;;;;;5056803;28;20049;-62
2022/11/06 04:15:18;;;;;;;0.45;0.45;;;21.20;48.50;;;;;;5057146;28;20045;-62
2022/11/06 04:17:45;;;;;;;0.40;0.40;;;21.20;48.40;;;;;;5057244;28;20060;-62
2022/11/06 04:21:20;;;;;;;0.30;0.30;;;21.20;48.40;;;;;;5055528;28;20055;-62
2022/11/06 04:23:34;;;;;;;0.70;0.38;;;21.20;48.40;;;;;;5055877;28;20410;-62
2022/11/06 04:26:38;;;;;;;0.40;0.40;;;21.20;48.40;;;;;;5056961;28;20053;-62
2022/11/06 04:29:30;;;;;;;0.47;0.47;;;21.20;48.40;;;;;;5056701;28;20136;-62
2022/11/06 04:32:28;;;;;;;0.47;0.47;;;21.20;48.40;;;;;;5057247;28;20514;-62
2022/11/06 04:35:35;;;;;;;0.47;0.47;;;21.20;48.40;;;;;;5057536;28;20503;-62
2022/11/06 04:38:14;;;;;;;0.73;0.73;;;21.20;48.40;;;;;;5055660;28;20067;-62
2022/11/06 04:41:02;;;;;;;;;;;21.20;48.40;;;;;;5057034;28;20098;-62
2022/11/06 04:43:56;;;;;;;0.40;0.40;;;21.20;48.40;;;;;;5056657;28;19921;-62
2022/11/06 04:46:31;;;;;;;0.47;0.47;;;21.20;48.40;;;;;;5056932;28;20053;-62
2022/11/06 04:49:01;;;;;;;0.40;0.40;;;21.20;48.40;;;;;;5056715;28;20411;-62
2022/11/06 04:51:34;;;;;;;0.47;0.47;;;21.20;48.40;;;;;;5056781;28;20049;-62
2022/11/06 04:54:03;;;;;;;0.63;0.63;;;21.20;48.40;;;;;;5055494;28;20053;-62
2022/11/06 04:56:32;;;;;;;0.90;0.40;;;21.20;48.40;;;;;;5056885;28;20067;-62
2022/11/06 04:59:03;;;;;;;1.00;0.70;;;21.20;48.40;;;;;;5056569;28;20402;-62
2022/11/06 05:01:30;;;;;;;0.90;0.40;;;21.20;48.40;;;;;;5056534;28;20045;-62
2022/11/06 05:03:58;;;;;;;0.40;0.40;;;21.20;48.40;;;;;;5056745;28;20048;-62
2022/11/06 05:06:25;;;;;;;0.40;0.40;;;21.20;48.40;;;;;;5056482;28;20052;-62
2022/11/06 05:08:57;;;;;;;0.40;0.40;;;21.20;48.40;;;;;;5055368;28;20376;-62
2022/11/06 05:11:24;;;;;;;0.43;0.43;;;21.20;48.50;;;;;;5058296;28;20049;-59
2022/11/06 05:13:51;;;;;;;0.40;0.40;;;21.20;48.50;;;;;;5060847;28;20049;-63
2022/11/06 05:16:18;;;;;;;0.45;0.40;;;21.20;48.50;;;;;;5060353;28;20479;-62
2022/11/06 05:18:45;;;;;;;0.50;0.50;;;21.20;48.50;;;;;;5060725;28;20483;-62
2022/11/06 05:23:59;;;;;;;0.93;0.40;;;21.20;48.50;;;;;;5060430;28;20056;-62
2022/11/06 05:26:26;;;;;;;0.43;0.43;;;21.20;48.50;;;;;;5059371;28;20056;-62
2022/11/06 05:28:53;;;;;;;0.40;0.40;;;21.20;48.50;;;;;;5060065;28;20053;-62
2022/11/06 05:31:20;;;;;;;0.40;0.40;;;21.20;48.50;;;;;;5059902;28;20041;-62
2022/11/06 05:33:47;;;;;;;1.13;0.60;;;21.20;48.60;;;;;;5060262;28;20407;-62
2022/11/06 05:36:14;;;;;;;1.23;0.75;;;21.20;48.60;;;;;;5058624;28;20052;-59
2022/11/06 05:38:41;;;;;;;0.80;0.80;;;21.20;48.50;;;;;;5059877;28;20049;-62
2022/11/06 05:41:08;;;;;;;1.00;0.75;;;21.20;48.40;;;;;;5059854;28;20054;-63
2022/11/06 05:43:36;;;;;;;1.20;1.10;;;21.20;48.30;;;;;;5059827;28;20048;-63
2022/11/06 05:46:03;;;;;;;0.63;0.63;;;21.20;48.20;;;;;;5060323;28;20135;-62
2022/11/06 05:48:30;;;;;;;0.80;0.80;;;21.20;48.10;;;;;;5059859;28;20052;-62
2022/11/06 05:51:02;;;;;;;1.13;0.90;;;21.20;48.00;;;;;;5059571;28;20056;-63
2022/11/06 05:53:31;;;;;;;1.23;0.95;;;21.20;48.00;;;;;;5042238;28;20501;-63
2022/11/06 05:55:58;;;;;;;1.05;1.00;;;21.20;48.00;;;;;;5059930;28;20052;-62
2022/11/06 05:58:26;;;;;;;0.80;0.80;;;21.20;48.00;;;;;;5059749;28;20061;-62
2022/11/06 06:00:54;;;;;;;1.48;1.15;;;21.20;48.00;;;;;;5059962;28;20055;-59
2022/11/06 06:03:21;;;;;;;1.55;0.88;;;21.10;47.90;;;;;;5059628;28;20064;-63
2022/11/06 06:05:48;;;;;;;1.08;0.98;;;21.10;47.90;;;;;;5059828;28;20055;-62
2022/11/06 06:08:15;;;;;;;1.05;0.90;;;21.10;47.90;;;;;;5042146;28;20113;-62
2022/11/06 06:10:44;;;;;;;1.00;0.90;;;21.10;47.80;;;;;;5059749;28;20045;-62
2022/11/06 06:13:12;;;;;;;1.25;1.15;;;21.10;47.80;;;;;;5058607;28;20059;-62
2022/11/06 06:15:40;;;;;;;1.58;1.30;;;21.10;47.80;;;;;;5059697;28;20402;-62
2022/11/06 06:18:08;;;;;;;2.65;1.30;;;21.10;47.70;;;;;;5059481;28;20048;-63
2022/11/06 06:20:36;;;;;;;1.45;1.30;;;21.10;47.70;;;;;;5058152;28;20041;-62
2022/11/06 06:23:03;;;;;;;1.48;1.23;;;21.10;47.70;;;;;;5058085;28;20060;-62
2022/11/06 06:25:35;;;;;;;1.65;1.55;;;21.10;47.60;;;;;;5058371;28;20475;-62
2022/11/06 06:28:02;;;;;;;1.77;1.40;;;21.00;47.50;;;;;;5059122;28;20060;-62
2022/11/06 06:30:29;;;;;;;1.48;1.38;;;21.10;47.60;;;;;;5059429;28;20051;-62
2022/11/06 06:33:01;;;;;;;2.30;1.50;;;21.00;47.50;;;;;;5059095;28;20045;-62
2022/11/06 06:35:28;;;;;;;1.38;1.27;;;21.00;47.50;;;;;;5058944;28;20041;-62
2022/11/06 06:37:56;;;;;;;1.17;1.08;;;21.00;47.50;;;;;;5058835;28;20049;-62
2022/11/06 06:40:23;;;;;;;1.38;1.25;;;21.00;47.50;;;;;;5059422;28;20044;-62
2022/11/06 06:42:50;;;;;;;1.67;1.45;;;21.00;47.40;;;;;;5057878;28;20049;-62
2022/11/06 06:45:17;;;;;;;1.48;1.30;;;21.00;47.40;;;;;;5057838;28;20483;-62
2022/11/06 06:47:44;;;;;;;1.50;1.40;;;21.00;47.40;;;;;;5058726;28;20052;-62
2022/11/06 06:50:11;;;;;;;1.60;1.50;;;21.00;47.30;;;;;;5058657;28;20049;-62
2022/11/06 06:52:38;;;;;;;1.77;1.20;;;21.00;47.30;;;;;;5058526;28;20049;-62
2022/11/06 06:55:06;;;;;;;1.33;1.27;;;21.00;47.30;;;;;;5058495;28;20055;-62
2022/11/06 06:57:33;;;;;;;1.33;1.23;;;21.00;47.30;;;;;;5057557;28;20142;-62
2022/11/06 07:00:00;;;;;;;1.20;1.10;;;21.00;47.30;;;;;;5058820;28;20049;-62
2022/11/06 07:02:27;;;;;;;1.65;1.50;;;21.00;47.30;;;;;;5058672;28;20049;-62
2022/11/06 07:04:54;;;;;;;2.55;1.52;;;21.00;47.30;;;;;;5058648;28;20122;-63
2022/11/06 07:07:21;;;;;;;2.15;1.70;;;21.00;47.20;;;;;;5040557;28;20048;-62
2022/11/06 07:09:48;;;;;;;2.80;1.90;;;21.00;47.20;;;;;;5058497;28;20495;-62
2022/11/06 07:12:15;;;;;;;1.48;1.38;;;21.00;47.30;;;;;;5058293;28;20056;-62
2022/11/06 07:14:42;;;;;;;1.48;1.38;;;21.00;47.20;;;;;;5059083;28;20053;-62
2022/11/06 07:17:09;;;;;;;2.47;1.85;;;21.00;47.20;;;;;;5058372;28;20049;-62
2022/11/06 07:19:36;;;;;;;2.42;1.67;;;21.00;47.20;;;;;;5058535;28;20053;-62
2022/11/06 07:22:03;;;;;;;2.28;1.77;;;21.00;47.20;;;;;;5058024;28;20462;-62
2022/11/06 07:24:31;;;;;;;2.67;1.63;;;21.00;47.10;;;;;;5056675;28;20049;-62
2022/11/06 07:26:58;;;;;;;3.25;1.90;;;21.00;47.10;;;;;;5057871;28;20052;-62
2022/11/06 07:29:25;;;;;;;2.17;1.65;;;21.00;47.10;;;;;;5058222;28;20471;-62
2022/11/06 07:31:52;;;;;;;3.30;2.08;;;21.10;47.10;;;;;;5057919;28;20045;-62
2022/11/06 07:34:19;;;;;;;3.17;2.03;;;21.00;47.00;;;;;;5057786;28;20053;-62
2022/11/06 07:36:46;;;;;;;1.60;1.50;;;21.00;47.00;;;;;;5057856;28;20050;-59
2022/11/06 07:39:13;;;;;;;3.38;2.42;;;21.00;46.90;;;;;;5057706;28;20064;-62
2022/11/06 07:41:40;;;;;;;2.08;1.90;;;21.00;46.90;;;;;;5058105;28;20056;-62
2022/11/06 07:44:07;;;;;;;2.35;1.90;;;21.00;46.90;;;;;;5057596;28;20068;-62
2022/11/06 07:46:34;;;;;;;2.55;1.88;;;21.00;46.90;;;;;;5056511;28;20060;-62
2022/11/06 07:49:01;;;;;;;3.00;2.60;;;21.00;46.90;;;;;;5057199;28;20052;-62
2022/11/06 07:51:28;;;;;;;2.92;2.45;;;21.00;46.90;;;;;;5057600;28;20052;-62
2022/11/06 07:53:56;;;;;;;4.80;2.10;;;21.00;46.80;;;;;;5057481;28;20409;-62
2022/11/06 07:56:23;;;;;;;3.60;2.67;;;21.00;46.80;;;;;;5057298;28;20048;-62
2022/11/06 07:58:50;;;;;;;3.03;2.25;;;21.00;46.80;;;;;;5057543;28;20483;-62
2022/11/06 08:01:17;;;;;;;4.35;3.13;;;21.00;46.80;;;;;;5056093;28;20056;-62
2022/11/06 08:03:45;;;;;;;2.92;2.58;;;21.00;46.80;;;;;;5057170;28;20049;-62
2022/11/06 08:06:12;;;;;;;4.15;2.53;;;21.10;46.80;;;;;;5057469;28;20064;-62
2022/11/06 08:08:39;;;;;;;4.00;2.50;;;21.10;46.80;;;;;;5055870;28;20053;-62
2022/11/06 08:11:08;;;;;;;4.47;3.00;;;21.00;46.70;;;;;;5056776;28;20045;-62
2022/11/06 08:13:36;;;;;;;3.10;2.28;;;21.10;46.70;;;;;;5057444;28;20056;-62
2022/11/06 08:16:06;;;;;;;3.25;2.58;;;21.10;46.70;;;;;;5057351;28;20491;-62
2022/11/06 08:18:34;;;;;;;4.47;3.47;;;21.10;46.70;;;;;;5057415;28;20057;-62
2022/11/06 08:21:02;;;;;;;4.63;2.60;;;21.10;46.60;;;;;;5057339;28;20049;-62
2022/11/06 08:23:29;;;;;;;3.47;2.63;;;21.10;46.50;;;;;;5056990;28;20049;-63
2022/11/06 08:25:59;;;;;;;3.90;2.67;;;21.10;46.40;;;;;;5057016;28;20045;-63
2022/11/06 08:28:27;;;;;;;2.70;2.50;;;21.20;46.40;;;;;;5057016;28;20045;-62
2022/11/06 08:30:54;;;;;;;4.50;2.90;;;21.20;46.30;;;;;;5055812;28;20057;-62
2022/11/06 08:33:23;;;;;;;3.10;2.70;;;21.20;46.30;;;;;;5057013;28;20060;-62
2022/11/06 08:35:50;;;;;;;3.97;2.63;;;21.30;46.30;;;;;;5056915;28;20048;-62
2022/11/06 08:38:17;;;;;;;3.80;2.65;;;21.30;46.20;;;;;;5056526;28;20051;-62
2022/11/06 08:40:44;;;;;;;3.25;2.67;;;21.30;46.20;;;;;;5055965;28;20474;-62
2022/11/06 08:43:18;;;;;;;3.45;3.05;;;21.30;46.10;;;;;;5056670;28;20483;-62
2022/11/06 08:45:45;;;;;;;4.13;2.72;;;21.40;46.10;;;;;;5056876;28;20049;-62
2022/11/06 08:48:12;;;;;;;4.60;3.25;;;21.40;46.00;;;;;;5055596;28;20049;-59
2022/11/06 08:50:40;;;;;;;4.30;2.90;;;21.40;45.90;;;;;;5056476;28;20053;-62
2022/11/06 08:53:07;;;;;;;2.58;2.22;;;21.40;45.80;;;;;;5056727;28;20094;-62
2022/11/06 08:55:37;;;;;;;2.95;2.47;;;21.50;45.90;;;;;;5056672;28;20479;-62
2022/11/06 08:58:05;;;;;;;3.10;2.72;;;21.50;45.80;;;;;;5056853;28;20053;-62
2022/11/06 09:00:33;;;;;;;2.80;2.33;;;21.50;45.70;;;;;;5056629;28;20056;-62
2022/11/06 09:03:06;;;;;;;2.80;2.38;;;21.50;45.60;;;;;;5055466;28;20060;-62
2022/11/06 09:05:33;;;;;;;4.07;3.15;;;21.50;45.60;;;;;;5056491;28;20045;-62
2022/11/06 09:08:00;;;;;;;4.15;2.65;;;21.50;46.10;;;;;;5056217;28;20049;-62
2022/11/06 09:10:27;;;;;;;4.18;2.60;;;21.50;45.50;;;;;;5056423;28;20052;-62
2022/11/06 09:12:58;;;;;;;2.53;2.33;;;21.50;45.40;;;;;;5056231;28;20060;-62
2022/11/06 09:15:25;;;;;;;3.45;2.60;;;21.50;45.40;;;;;;5055252;28;20053;-62
2022/11/06 09:17:53;;;;;;;3.72;2.85;;;21.60;45.40;;;;;;5056457;28;20053;-62
2022/11/06 09:20:21;;;;;;;3.65;2.80;;;21.60;45.40;;;;;;5056596;28;20056;-62
2022/11/06 09:22:49;;;;;;;3.75;2.58;;;21.60;45.30;;;;;;5056388;28;20060;-62
2022/11/06 09:25:16;;;;;;;4.25;2.95;;;21.60;45.30;;;;;;5056539;28;20060;-62
2022/11/06 09:27:50;;;;;;;3.20;2.42;;;21.60;45.20;;;;;;5056253;28;20045;-61
2022/11/06 09:30:27;;;;;;;4.43;2.92;;;21.70;45.20;;;;;;5056113;28;20543;-59
2022/11/06 09:32:59;;;;;;;4.22;2.40;;;21.70;45.10;;;;;;5055321;28;20475;-62
2022/11/06 09:35:28;;;;;;;5.07;2.53;;;21.70;45.00;;;;;;5056351;28;20483;-62
2022/11/06 09:38:00;;;;;;;5.15;2.58;;;21.70;44.90;;;;;;5054934;28;20057;-62
2022/11/06 09:40:54;;;;;;;2.95;2.55;;;21.80;44.90;;;;;;5056210;28;20581;-63
2022/11/06 09:44:00;;;;;;;3.05;2.22;;;21.80;44.90;;;;;;5056155;28;20053;-62
2022/11/06 09:46:38;;;;;;;2.65;2.10;;;21.80;44.70;;;;;;5056139;28;20045;-63
2022/11/06 09:49:28;;;;;;;4.18;2.80;;;21.80;44.70;;;;;;5055954;28;20056;-62
2022/11/06 09:52:18;;;;;;;3.08;2.58;;;21.90;44.80;;;;;;5057095;28;20383;-62
2022/11/06 09:54:57;;;;;;;5.07;2.53;;;21.90;44.70;;;;;;5056304;28;20060;-62
2022/11/06 09:57:38;;;;;;;4.25;2.45;;;21.90;44.70;;;;;;5055883;28;20055;-62
2022/11/06 10:00:11;;;;;;;2.90;2.42;;;21.90;44.60;;;;;;5059909;28;20055;-62
2022/11/06 10:02:52;;;;;;;4.47;2.67;;;21.80;44.60;;;;;;5058589;28;20048;-63
2022/11/06 10:05:30;;;;;;;3.33;2.28;;;21.90;44.70;;;;;;5058972;28;20041;-63
2022/11/06 10:08:13;;;;;;;2.33;2.20;;;21.80;44.70;;;;;;5059319;28;20049;-62
2022/11/06 10:10:49;;;;;;;4.55;2.65;;;21.80;44.70;;;;;;5059836;28;20115;-63
2022/11/06 10:13:34;;;;;;;3.70;2.25;;;21.80;44.80;;;;;;5059484;28;20049;-63
2022/11/06 10:16:41;;;;;;;5.18;2.38;;;21.80;44.80;;;;;;5059320;28;20049;-62
2022/11/06 10:19:37;;;;;;;2.78;2.42;;;21.80;44.80;;;;;;5058108;28;20071;-62
2022/11/06 10:22:17;;;;;;;2.80;2.28;;;21.80;44.90;;;;;;5058712;28;20048;-62
2022/11/06 10:24:52;;;;;;;3.10;2.50;;;21.80;44.90;;;;;;5058345;28;20056;-62
2022/11/06 10:27:39;;;;;;;5.10;2.97;;;21.70;44.80;;;;;;5059510;28;20406;-62
2022/11/06 10:30:12;;;;;;;3.53;2.47;;;21.80;44.80;;;;;;5059435;28;20053;-62
2022/11/06 10:33:12;;;;;;;3.17;2.47;;;21.80;44.80;;;;;;5059388;28;20384;-62
2022/11/06 10:35:45;;;;;;;2.88;2.50;;;21.80;44.80;;;;;;5059361;28;20049;-62
2022/11/06 10:38:16;;;;;;;3.78;2.60;;;21.80;44.80;;;;;;5058710;28;20064;-62
2022/11/06 10:40:47;;;;;;;3.65;2.75;;;21.80;44.70;;;;;;5057848;28;20049;-62
2022/11/06 10:43:39;;;;;;;2.42;2.22;;;21.80;44.70;;;;;;5057930;28;20045;-63
2022/11/06 10:46:33;;;;;;;2.22;2.03;;;21.80;44.70;;;;;;5059074;28;20419;-62
2022/11/06 10:49:40;;;;;;;3.22;2.10;;;21.80;44.70;;;;;;5058348;28;20059;-62
2022/11/06 10:52:36;;;;;;;2.85;2.10;;;21.80;44.70;;;;;;5057773;28;20052;-62
2022/11/06 10:55:43;;;;;;;3.78;2.80;;;21.80;44.70;;;;;;5058665;28;20131;-62
2022/11/06 10:58:17;;;;;;;3.50;2.53;;;21.80;44.70;;;;;;5058739;28;20131;-62
2022/11/06 11:00:44;;;;;;;2.05;1.85;;;21.80;44.70;;;;;;5041096;28;20041;-62
2022/11/06 11:03:31;;;;;;;3.03;2.40;;;21.80;45.20;;;;;;5058445;28;20053;-62
2022/11/06 11:05:59;;;;;;;2.72;2.33;;;21.80;44.70;;;;;;5058572;28;20045;-62
2022/11/06 11:08:38;;;;;;;2.60;2.40;;;21.80;44.70;;;;;;5057816;28;20045;-62
2022/11/06 11:11:18;;;;;;;4.25;2.40;;;21.80;44.70;;;;;;5057578;28;20048;-62
2022/11/06 11:14:07;;;;;;;2.72;2.22;;;21.80;44.70;;;;;;5058612;28;20052;-62
2022/11/06 11:16:41;;;;;;;2.47;2.28;;;21.80;44.70;;;;;;5057270;28;20044;-62
2022/11/06 11:19:33;;;;;;;3.45;1.85;;;21.80;44.80;;;;;;5058074;28;20045;-62
2022/11/06 11:22:16;;;;;;;5.47;3.03;;;21.80;44.80;;;;;;5058516;28;20049;-62
2022/11/06 11:25:02;;;;;;;3.38;2.45;;;21.80;44.80;;;;;;5057427;28;20049;-62
2022/11/06 11:27:37;;;;;;;2.47;2.28;;;21.70;44.70;;;;;;5057905;28;20052;-62
2022/11/06 11:30:05;;;;;;;3.78;2.80;;;21.70;44.80;;;;;;5056749;28;20056;-62
2022/11/06 11:32:32;;;;;;;5.18;2.60;;;21.70;44.80;;;;;;5057928;28;20045;-62
2022/11/06 11:35:07;;;;;;;2.47;2.22;;;21.70;44.80;;;;;;5058187;28;20064;-62
2022/11/06 11:37:34;;;;;;;3.22;2.92;;;21.70;44.80;;;;;;5057610;28;20052;-63
2022/11/06 11:40:34;;;;;;;4.85;2.28;;;21.70;44.80;;;;;;5057721;28;20055;-63
2022/11/06 11:43:23;;;;;;;3.40;2.38;;;21.70;44.80;;;;;;5056705;28;20044;-62
2022/11/06 11:46:16;;;;;;;2.45;2.08;;;21.70;44.80;;;;;;5056594;28;20059;-62
2022/11/06 11:48:54;;;;;;;2.83;2.53;;;21.70;44.90;;;;;;5057602;28;20491;-62
2022/11/06 11:51:41;;;;;;;3.88;2.78;;;21.70;44.90;;;;;;5057455;28;20136;-62
2022/11/06 11:54:18;;;;;;;4.13;2.20;;;21.70;44.90;;;;;;5057409;28;20457;-62
2022/11/06 11:57:16;;;;;;;2.55;2.08;;;21.70;44.90;;;;;;5057802;28;20073;-62
2022/11/06 11:59:54;;;;;;;3.97;2.47;;;21.70;45.40;;;;;;5057704;28;20056;-62
2022/11/06 12:02:39;;;;;;;3.08;2.78;;;21.70;44.90;;;;;;5057255;28;20051;-62
2022/11/06 12:05:16;;;;;;;3.00;2.20;;;21.70;44.90;;;;;;5057264;28;20131;-62
2022/11/06 12:07:48;;;;;;;3.17;2.25;;;21.70;44.90;;;;;;5057591;28;20060;-62
2022/11/06 12:10:35;;;;;;;4.10;2.92;;;21.70;44.90;;;;;;5057153;28;20063;-62
2022/11/06 12:13:06;;;;;;;3.45;2.38;;;21.70;44.80;;;;;;5057046;28;20415;-62
2022/11/06 12:15:46;;;;;;;;;;;21.80;44.80;;;;;;5057655;28;20053;-62
2022/11/06 12:18:18;;;;;;;2.75;2.50;;;21.80;44.60;;;;;;5057351;28;20267;-62
2022/11/06 12:21:07;;;;;;;3.75;2.97;;;21.80;44.60;;;;;;5056761;28;20051;-62
2022/11/06 12:23:56;;;;;;;3.20;2.55;;;21.80;44.50;;;;;;5056414;28;20053;-59
2022/11/06 12:26:34;;;;;;;2.28;2.08;;;21.80;44.50;;;;;;5057050;28;20075;-62
2022/11/06 12:29:09;;;;;;;3.35;2.60;;;21.90;44.40;;;;;;5056575;28;20044;-62
2022/11/06 12:31:46;;;;;;;3.40;2.70;;;21.90;44.40;;;;;;5057331;28;20051;-62
2022/11/06 12:34:26;;;;;;;4.28;2.40;;;21.90;44.40;;;;;;5056906;28;20407;-62
2022/11/06 12:37:24;;;;;;;3.80;2.35;;;21.90;44.40;;;;;;5056870;28;20056;-63
2022/11/06 12:39:59;;;;;;;2.95;2.45;;;21.90;44.30;;;;;;5056978;28;20067;-63
2022/11/06 12:42:31;;;;;;;3.15;2.38;;;21.90;44.30;;;;;;5057081;28;20052;-62
2022/11/06 12:44:58;;;;;;;2.30;2.05;;;21.90;44.30;;;;;;5056973;28;20056;-62
2022/11/06 12:47:51;;;;;;;4.75;2.75;;;21.90;44.30;;;;;;5056795;28;20136;-62
2022/11/06 12:50:47;;;;;;;2.58;2.22;;;21.90;44.20;;;;;;5056275;28;20080;-63
2022/11/06 12:53:32;;;;;;;3.08;2.45;;;21.90;44.20;;;;;;5056573;28;20055;-62
2022/11/06 12:56:21;;;;;;;3.95;2.85;;;21.90;44.20;;;;;;5055652;28;20049;-62
2022/11/06 12:59:16;;;;;;;3.45;2.50;;;21.90;44.20;;;;;;5055660;28;20049;-62
2022/11/06 13:02:01;;;;;;;2.78;2.50;;;21.90;44.20;;;;;;5055405;28;20132;-62
2022/11/06 13:05:00;;;;;;;3.10;2.13;;;21.90;44.20;;;;;;5056608;28;20053;-62
2022/11/06 13:07:58;;;;;;;3.10;2.40;;;21.90;44.20;;;;;;5056247;28;20045;-62
2022/11/06 13:10:53;;;;;;;3.03;2.33;;;21.90;44.20;;;;;;5056518;28;20048;-62
2022/11/06 13:13:39;;;;;;;3.05;2.40;;;21.90;44.20;;;;;;5056401;28;20045;-62
2022/11/06 13:16:30;;;;;;;3.80;2.20;;;21.90;44.10;;;;;;5056571;28;20080;-62
2022/11/06 13:19:21;;;;;;;3.17;2.30;;;21.90;44.10;;;;;;5056022;28;20047;-62
2022/11/06 13:22:08;;;;;;;3.47;2.35;;;21.80;44.20;;;;;;5041401;28;20053;-62
2022/11/06 13:24:59;;;;;;;3.88;2.35;;;21.90;44.20;;;;;;5056161;28;20080;-62
2022/11/06 13:27:51;;;;;;;5.25;3.00;;;21.80;44.20;;;;;;5056312;28;20049;-62
2022/11/06 13:30:20;;;;;;;4.72;2.40;;;21.80;44.10;;;;;;5055404;28;20055;-62
2022/11/06 13:33:06;;;;;;;3.97;2.78;;;21.80;44.10;;;;;;5058401;28;20418;-62
2022/11/06 13:35:37;;;;;;;4.97;2.90;;;21.80;44.10;;;;;;5060434;28;20407;-62
2022/11/06 13:38:15;;;;;;;4.53;2.53;;;21.80;44.20;;;;;;5059973;28;20112;-62